createdAt,value
2019-04-28T00:00:54.817Z,91.26
2019-04-28T00:03:24.060Z,91.25
2019-04-28T00:05:53.273Z,89.70
2019-04-28T00:08:22.574Z,89.30
2019-04-28T00:10:53.376Z,90.52
2019-04-28T00:13:22.712Z,90.42
2019-04-28T00:15:52.227Z,91.03
2019-04-28T00:18:21.977Z,90.47
2019-04-28T00:21:13.159Z,90.34
2019-04-28T00:24:04.228Z,89.49
2019-04-28T00:26:41.142Z,89.53
2019-04-28T00:29:11.143Z,89.09
2019-04-28T00:31:41.369Z,89.29
2019-04-28T00:34:11.485Z,89.62
2019-04-28T00:36:43.069Z,91.14
2019-04-28T00:39:12.734Z,90.32
2019-04-28T00:41:42.257Z,89.95
2019-04-28T00:44:12.019Z,89.53
2019-04-28T00:46:42.257Z,90.04
2019-04-28T00:49:11.993Z,90.59
2019-04-28T00:51:41.705Z,90.41
2019-04-28T00:54:12.139Z,90.82
2019-04-28T00:56:42.034Z,90.45
2019-04-28T00:59:11.936Z,90.83
2019-04-28T01:01:47.645Z,90.75
2019-04-28T01:04:16.936Z,90.86
2019-04-28T01:06:46.228Z,90.42
2019-04-28T01:09:15.513Z,90.96
2019-04-28T01:11:44.775Z,91.98
2019-04-28T01:14:14.176Z,92.16
2019-04-28T01:16:49.829Z,92.55
2019-04-28T01:19:24.640Z,91.12
2019-04-28T01:22:13.024Z,91.30
2019-04-28T01:24:42.749Z,90.32
2019-04-28T01:27:33.973Z,91.25
2019-04-28T01:30:08.636Z,90.85
2019-04-28T01:32:42.582Z,91.06
2019-04-28T01:35:11.926Z,91.53
2019-04-28T01:37:41.216Z,91.00
2019-04-28T01:40:10.701Z,91.46
2019-04-28T01:42:41.259Z,91.97
2019-04-28T01:45:10.791Z,91.86
2019-04-28T01:47:40.619Z,92.36
2019-04-28T01:50:10.316Z,92.54
2019-04-28T01:52:40.075Z,92.20
2019-04-28T01:55:10.143Z,92.05
2019-04-28T01:57:40.173Z,92.27
2019-04-28T02:00:22.930Z,92.41
2019-04-28T02:02:45.246Z,92.63
2019-04-28T02:05:15.372Z,91.86
2019-04-28T02:07:44.713Z,91.75
2019-04-28T02:10:14.175Z,91.67
2019-04-28T02:12:43.465Z,92.36
2019-04-28T02:15:12.712Z,92.04
2019-04-28T02:17:42.010Z,91.68
2019-04-28T02:20:11.630Z,91.20
2019-04-28T02:22:55.706Z,91.44
2019-04-28T02:25:25.035Z,91.32
2019-04-28T02:27:57.049Z,92.02
2019-04-28T02:30:40.924Z,92.26
2019-04-28T02:32:56.449Z,91.89
2019-04-28T02:35:27.525Z,91.18
2019-04-28T02:37:56.877Z,90.96
2019-04-28T02:40:26.209Z,92.00
2019-04-28T02:42:55.430Z,92.25
2019-04-28T02:45:24.793Z,92.39
2019-04-28T02:47:57.248Z,93.14
2019-04-28T02:50:41.187Z,92.24
2019-04-28T02:53:24.227Z,92.65
2019-04-28T02:55:53.611Z,92.90
2019-04-28T02:58:22.942Z,93.07
2019-04-28T03:01:07.395Z,93.10
2019-04-28T03:03:23.486Z,93.12
2019-04-28T03:05:52.721Z,93.22
2019-04-28T03:08:22.187Z,92.60
2019-04-28T03:10:51.580Z,92.66
2019-04-28T03:13:21.118Z,92.24
2019-04-28T03:15:51.528Z,92.95
2019-04-28T03:18:21.551Z,92.96
2019-04-28T03:20:51.812Z,92.87
2019-04-28T03:23:21.280Z,92.72
2019-04-28T03:26:11.136Z,92.90
2019-04-28T03:28:55.697Z,91.65
2019-04-28T03:32:09.478Z,92.95
2019-04-28T03:34:23.470Z,91.93
2019-04-28T03:36:51.837Z,90.86
2019-04-28T03:39:21.283Z,90.77
2019-04-28T03:41:50.734Z,91.08
2019-04-28T03:44:20.774Z,90.89
2019-04-28T03:46:53.322Z,91.39
2019-04-28T03:49:32.744Z,91.56
2019-04-28T03:52:03.315Z,90.87
2019-04-28T03:54:32.635Z,90.14
2019-04-28T03:57:02.069Z,91.02
2019-04-28T03:59:31.374Z,90.34
2019-04-28T04:02:03.256Z,90.75
2019-04-28T04:04:32.342Z,89.50
2019-04-28T04:07:01.733Z,90.93
2019-04-28T04:09:53.437Z,90.88
2019-04-28T04:12:51.100Z,90.05
2019-04-28T04:15:54.212Z,90.31
2019-04-28T04:18:27.565Z,90.62
2019-04-28T04:20:57.013Z,91.05
2019-04-28T04:23:26.259Z,90.93
2019-04-28T04:25:55.579Z,90.64
2019-04-28T04:28:24.900Z,90.87
2019-04-28T04:30:54.237Z,90.09
2019-04-28T04:33:23.569Z,91.17
2019-04-28T04:35:52.834Z,91.18
2019-04-28T04:38:22.092Z,90.94
2019-04-28T04:40:51.655Z,91.68
2019-04-28T04:43:23.285Z,91.27
2019-04-28T04:45:54.905Z,90.71
2019-04-28T04:48:24.273Z,90.65
2019-04-28T04:50:53.587Z,91.49
2019-04-28T04:53:22.913Z,92.40
2019-04-28T04:55:52.708Z,92.94
2019-04-28T04:58:22.136Z,93.29
2019-04-28T05:01:16.225Z,93.51
2019-04-28T05:03:47.241Z,93.61
2019-04-28T05:06:34.488Z,93.28
2019-04-28T05:09:06.462Z,93.62
2019-04-28T05:11:35.839Z,93.34
2019-04-28T05:14:07.504Z,93.70
2019-04-28T05:16:36.468Z,93.68
2019-04-28T05:19:05.769Z,93.86
2019-04-28T05:21:35.216Z,94.00
2019-04-28T05:24:23.454Z,93.73
2019-04-28T05:26:52.778Z,93.38
2019-04-28T05:29:26.837Z,91.73
2019-04-28T05:31:54.864Z,90.90
2019-04-28T05:34:24.595Z,90.80
2019-04-28T05:36:53.960Z,89.93
2019-04-28T05:39:23.283Z,90.04
2019-04-28T05:41:52.595Z,91.06
2019-04-28T05:44:21.939Z,91.34
2019-04-28T05:46:51.284Z,91.83
2019-04-28T05:49:42.334Z,91.71
2019-04-28T05:52:29.933Z,92.07
2019-04-28T05:55:05.829Z,91.72
2019-04-28T05:57:42.434Z,91.18
2019-04-28T06:00:30.741Z,92.12
2019-04-28T06:03:00.782Z,91.88
2019-04-28T06:05:31.808Z,91.97
2019-04-28T06:08:32.364Z,92.25
2019-04-28T06:11:03.279Z,92.42
2019-04-28T06:13:32.581Z,92.39
2019-04-28T06:16:01.825Z,92.31
2019-04-28T06:18:31.092Z,92.91
2019-04-28T06:21:00.607Z,92.88
2019-04-28T06:23:30.012Z,91.97
2019-04-28T06:25:59.357Z,91.74
2019-04-28T06:28:28.662Z,91.83
2019-04-28T06:30:57.976Z,91.63
2019-04-28T06:33:27.203Z,91.91
2019-04-28T06:35:56.478Z,92.22
2019-04-28T06:38:25.831Z,91.15
2019-04-28T06:40:55.136Z,91.48
2019-04-28T06:43:24.416Z,91.49
2019-04-28T06:45:53.711Z,91.16
2019-04-28T06:48:22.998Z,91.25
2019-04-28T06:50:52.307Z,90.97
2019-04-28T06:53:21.711Z,91.95
2019-04-28T06:55:51.070Z,91.88
2019-04-28T06:58:20.409Z,90.98
2019-04-28T07:00:49.721Z,91.56
2019-04-28T07:03:23.260Z,91.84
2019-04-28T07:05:49.942Z,91.49
2019-04-28T07:08:19.291Z,90.86
2019-04-28T07:10:48.619Z,90.23
2019-04-28T07:13:20.576Z,90.77
2019-04-28T07:15:49.040Z,90.88
2019-04-28T07:18:18.361Z,89.72
2019-04-28T07:21:11.381Z,88.67
2019-04-28T07:23:41.147Z,90.49
2019-04-28T07:26:10.399Z,90.77
2019-04-28T07:28:39.716Z,89.87
2019-04-28T07:31:09.273Z,89.75
2019-04-28T07:33:38.826Z,89.88
2019-04-28T07:36:08.579Z,88.83
2019-04-28T07:38:38.051Z,89.56
2019-04-28T07:41:07.337Z,88.94
2019-04-28T07:43:36.626Z,88.74
2019-04-28T07:46:05.933Z,89.78
2019-04-28T07:48:35.281Z,89.21
2019-04-28T07:51:04.620Z,88.79
2019-04-28T07:53:39.665Z,88.21
2019-04-28T07:56:09.044Z,88.45
2019-04-28T07:58:38.375Z,88.42
2019-04-28T08:01:09.447Z,89.03
2019-04-28T08:03:48.819Z,89.22
2019-04-28T08:06:09.811Z,87.33
2019-04-28T08:08:39.097Z,88.12
2019-04-28T08:11:08.385Z,89.08
2019-04-28T08:13:37.674Z,87.48
2019-04-28T08:16:06.980Z,88.68
2019-04-28T08:18:36.322Z,88.78
2019-04-28T08:21:05.658Z,89.37
2019-04-28T08:23:46.651Z,88.73
2019-04-28T08:26:06.069Z,88.80
2019-04-28T08:28:35.347Z,89.16
2019-04-28T08:31:05.995Z,88.49
2019-04-28T08:33:39.812Z,89.73
2019-04-28T08:36:09.232Z,88.92
2019-04-28T08:38:38.499Z,89.63
2019-04-28T08:41:07.893Z,88.88
2019-04-28T08:43:37.185Z,88.60
2019-04-28T08:46:06.537Z,88.91
2019-04-28T08:48:35.902Z,89.32
2019-04-28T08:51:05.255Z,89.06
2019-04-28T08:53:34.487Z,89.48
2019-04-28T08:56:03.791Z,88.66
2019-04-28T08:58:33.143Z,87.57
2019-04-28T09:01:02.473Z,87.79
2019-04-28T09:03:31.836Z,88.05
2019-04-28T09:06:01.525Z,88.38
2019-04-28T09:08:30.850Z,86.91
2019-04-28T09:11:00.172Z,88.19
2019-04-28T09:13:29.457Z,86.03
2019-04-28T09:15:59.192Z,86.82
2019-04-28T09:18:28.501Z,86.82
2019-04-28T09:20:57.828Z,86.65
2019-04-28T09:23:27.147Z,84.76
2019-04-28T09:25:56.431Z,83.92
2019-04-28T09:28:25.715Z,85.55
2019-04-28T09:30:55.043Z,84.37
2019-04-28T09:33:24.431Z,85.34
2019-04-28T09:35:53.762Z,84.61
2019-04-28T09:38:24.422Z,85.42
2019-04-28T09:40:53.755Z,84.29
2019-04-28T09:43:26.993Z,81.71
2019-04-28T09:46:09.758Z,81.80
2019-04-28T09:48:39.086Z,81.82
2019-04-28T09:51:08.339Z,83.21
2019-04-28T09:53:37.642Z,84.06
2019-04-28T09:56:07.026Z,83.85
2019-04-28T09:58:36.372Z,83.16
2019-04-28T10:01:06.051Z,84.33
2019-04-28T10:03:35.429Z,82.27
2019-04-28T10:06:04.780Z,84.33
2019-04-28T10:08:36.428Z,83.26
2019-04-28T10:11:05.114Z,83.02
2019-04-28T10:13:34.436Z,85.59
2019-04-28T10:16:03.921Z,86.69
2019-04-28T10:18:33.159Z,84.68
2019-04-28T10:21:02.525Z,82.99
2019-04-28T10:23:31.973Z,84.70
2019-04-28T10:26:01.365Z,84.47
2019-04-28T10:28:30.653Z,82.37
2019-04-28T10:31:00.003Z,83.66
2019-04-28T10:33:29.267Z,83.74
2019-04-28T10:35:58.565Z,82.95
2019-04-28T10:38:27.974Z,83.22
2019-04-28T10:41:11.087Z,84.28
2019-04-28T10:43:40.378Z,82.96
2019-04-28T10:46:09.700Z,84.33
2019-04-28T10:48:39.012Z,84.88
2019-04-28T10:51:08.483Z,84.89
2019-04-28T10:53:37.864Z,85.17
2019-04-28T10:56:07.174Z,83.91
2019-04-28T10:58:36.578Z,86.45
2019-04-28T11:01:06.532Z,85.37
2019-04-28T11:03:35.887Z,85.80
2019-04-28T11:06:05.234Z,86.78
2019-04-28T11:08:53.433Z,83.91
2019-04-28T11:11:25.819Z,84.10
2019-04-28T11:13:55.144Z,84.73
2019-04-28T11:16:28.335Z,85.09
2019-04-28T11:18:57.723Z,85.63
2019-04-28T11:21:27.043Z,86.23
2019-04-28T11:23:56.416Z,86.49
2019-04-28T11:26:25.895Z,85.98
2019-04-28T11:28:55.461Z,85.71
2019-04-28T11:31:24.850Z,85.75
2019-04-28T11:34:01.266Z,86.08
2019-04-28T11:36:30.568Z,87.30
2019-04-28T11:39:00.031Z,85.97
2019-04-28T11:41:29.322Z,86.13
2019-04-28T11:43:58.632Z,81.36
2019-04-28T11:46:27.982Z,84.97
2019-04-28T11:48:57.297Z,82.71
2019-04-28T11:51:26.606Z,82.58
2019-04-28T11:53:55.951Z,83.31
2019-04-28T11:56:25.265Z,83.03
2019-04-28T11:58:54.558Z,81.86
2019-04-28T12:01:24.246Z,83.48
2019-04-28T12:03:56.709Z,82.12
2019-04-28T12:06:25.996Z,83.39
2019-04-28T12:08:58.316Z,84.13
2019-04-28T12:11:40.326Z,84.09
2019-04-28T12:14:22.865Z,85.64
2019-04-28T12:17:29.094Z,84.54
2019-04-28T12:20:08.274Z,84.44
2019-04-28T12:22:37.655Z,83.98
2019-04-28T12:25:07.654Z,83.47
2019-04-28T12:27:37.001Z,85.32
2019-04-28T12:30:06.456Z,83.33
2019-04-28T12:32:35.756Z,81.50
2019-04-28T12:35:05.132Z,81.10
2019-04-28T12:37:34.523Z,82.13
2019-04-28T12:40:04.141Z,84.72
2019-04-28T12:42:33.462Z,83.62
2019-04-28T12:45:02.828Z,82.32
2019-04-28T12:47:32.103Z,84.40
2019-04-28T12:50:07.946Z,83.35
2019-04-28T12:52:37.257Z,83.80
2019-04-28T12:55:06.850Z,80.27
2019-04-28T12:57:36.175Z,82.39
2019-04-28T13:00:23.528Z,80.49
2019-04-28T13:03:10.210Z,80.90
2019-04-28T13:05:40.923Z,81.44
2019-04-28T13:08:10.237Z,81.56
2019-04-28T13:10:39.598Z,81.15
2019-04-28T13:13:08.890Z,78.74
2019-04-28T13:15:38.210Z,80.70
2019-04-28T13:18:07.545Z,80.45
2019-04-28T13:20:36.863Z,80.96
2019-04-28T13:23:06.159Z,78.92
2019-04-28T13:25:35.494Z,80.82
2019-04-28T13:28:04.814Z,80.47
2019-04-28T13:30:34.136Z,81.42
2019-04-28T13:33:03.575Z,79.94
2019-04-28T13:35:33.046Z,82.33
2019-04-28T13:38:02.404Z,82.66
2019-04-28T13:40:33.579Z,84.20
2019-04-28T13:43:02.874Z,82.48
2019-04-28T13:45:32.240Z,84.77
2019-04-28T13:48:01.562Z,85.70
2019-04-28T13:50:34.952Z,87.01
2019-04-28T13:53:04.483Z,87.15
2019-04-28T13:56:04.814Z,86.55
2019-04-28T13:58:40.793Z,87.68
2019-04-28T14:01:27.728Z,86.95
2019-04-28T14:04:24.857Z,87.00
2019-04-28T14:06:57.979Z,87.09
2019-04-28T14:09:27.335Z,88.34
2019-04-28T14:11:56.610Z,88.11
2019-04-28T14:14:26.114Z,87.34
2019-04-28T14:16:55.433Z,87.62
2019-04-28T14:19:24.728Z,87.97
2019-04-28T14:21:54.164Z,88.50
2019-04-28T14:24:23.438Z,88.83
2019-04-28T14:26:52.740Z,88.95
2019-04-28T14:29:22.042Z,88.61
2019-04-28T14:31:51.307Z,87.15
2019-04-28T14:34:20.648Z,88.11
2019-04-28T14:36:49.946Z,87.34
2019-04-28T14:39:19.256Z,87.33
2019-04-28T14:41:48.609Z,85.64
2019-04-28T14:44:17.964Z,87.33
2019-04-28T14:46:47.323Z,87.78
2019-04-28T14:49:16.618Z,87.31
2019-04-28T14:51:45.999Z,86.87
2019-04-28T14:54:15.314Z,87.02
2019-04-28T14:56:44.666Z,86.86
2019-04-28T14:59:14.046Z,87.67
2019-04-28T15:02:08.303Z,88.18
2019-04-28T15:04:55.178Z,88.11
2019-04-28T15:07:42.145Z,87.45
2019-04-28T15:10:20.286Z,87.40
2019-04-28T15:12:49.641Z,88.88
2019-04-28T15:15:20.103Z,88.99
2019-04-28T15:17:49.606Z,88.67
2019-04-28T15:20:18.976Z,89.71
2019-04-28T15:22:48.309Z,89.55
2019-04-28T15:25:17.616Z,90.05
2019-04-28T15:27:46.959Z,90.34
2019-04-28T15:30:16.341Z,90.04
2019-04-28T15:32:45.762Z,89.68
2019-04-28T15:35:15.815Z,90.10
2019-04-28T15:37:45.126Z,90.33
2019-04-28T15:40:14.849Z,89.98
2019-04-28T15:42:44.202Z,90.06
2019-04-28T15:45:14.029Z,90.27
2019-04-28T15:47:43.385Z,90.06
2019-04-28T15:50:12.864Z,90.03
2019-04-28T15:52:42.215Z,90.86
2019-04-28T15:55:13.905Z,89.83
2019-04-28T15:57:43.179Z,90.78
2019-04-28T16:00:14.040Z,91.10
2019-04-28T16:02:43.411Z,91.00
2019-04-28T16:05:12.959Z,90.75
2019-04-28T16:07:42.341Z,90.11
2019-04-28T16:10:12.112Z,91.12
2019-04-28T16:12:41.413Z,91.13
2019-04-28T16:15:10.995Z,91.66
2019-04-28T16:17:40.339Z,90.88
2019-04-28T16:20:09.724Z,90.78
2019-04-28T16:22:39.019Z,91.19
2019-04-28T16:25:08.453Z,91.90
2019-04-28T16:27:37.778Z,91.11
2019-04-28T16:30:07.276Z,91.22
2019-04-28T16:32:36.643Z,91.29
2019-04-28T16:35:06.012Z,90.91
2019-04-28T16:37:39.082Z,91.35
2019-04-28T16:40:09.492Z,91.17
2019-04-28T16:42:43.642Z,90.78
2019-04-28T16:45:24.004Z,91.00
2019-04-28T16:47:53.253Z,90.99
2019-04-28T16:50:22.578Z,89.72
2019-04-28T16:52:51.939Z,89.80
2019-04-28T16:55:25.543Z,89.67
2019-04-28T16:58:12.512Z,91.30
2019-04-28T17:00:59.571Z,91.92
2019-04-28T17:03:30.130Z,92.69
2019-04-28T17:05:59.424Z,93.16
2019-04-28T17:08:28.740Z,93.48
2019-04-28T17:10:58.204Z,93.61
2019-04-28T17:13:27.498Z,93.51
2019-04-28T17:15:56.875Z,93.50
2019-04-28T17:18:26.377Z,93.74
2019-04-28T17:20:55.636Z,93.78
2019-04-28T17:23:24.940Z,92.93
2019-04-28T17:25:54.507Z,93.10
2019-04-28T17:28:23.778Z,93.17
2019-04-28T17:30:53.091Z,92.74
2019-04-28T17:33:22.652Z,92.91
2019-04-28T17:35:51.936Z,92.28
2019-04-28T17:38:21.201Z,92.65
2019-04-28T17:40:50.681Z,93.48
2019-04-28T17:43:20.110Z,93.30
2019-04-28T17:45:49.630Z,92.75
2019-04-28T17:48:27.768Z,92.24
2019-04-28T17:50:57.095Z,93.56
2019-04-28T17:53:26.380Z,93.49
2019-04-28T17:55:55.844Z,93.74
2019-04-28T17:58:25.180Z,92.72
2019-04-28T18:01:16.540Z,92.65
2019-04-28T18:03:57.799Z,92.67
2019-04-28T18:06:27.515Z,93.14
2019-04-28T18:08:56.755Z,92.62
2019-04-28T18:11:26.088Z,91.83
2019-04-28T18:13:55.442Z,92.07
2019-04-28T18:16:55.621Z,92.36
2019-04-28T18:19:25.505Z,92.33
2019-04-28T18:21:54.845Z,92.97
2019-04-28T18:24:24.671Z,93.11
2019-04-28T18:26:53.915Z,93.23
2019-04-28T18:29:23.324Z,93.74
2019-04-28T18:32:11.560Z,93.97
2019-04-28T18:34:45.737Z,93.79
2019-04-28T18:37:43.177Z,93.34
2019-04-28T18:40:34.660Z,93.34
2019-04-28T18:43:20.581Z,93.54
2019-04-28T18:45:49.852Z,93.62
2019-04-28T18:48:19.314Z,93.78
2019-04-28T18:50:48.656Z,94.00
2019-04-28T18:53:18.055Z,94.32
2019-04-28T18:55:47.553Z,94.66
2019-04-28T18:58:16.885Z,94.83
2019-04-28T19:00:53.416Z,95.00
2019-04-28T19:03:23.153Z,95.04
2019-04-28T19:05:53.779Z,94.51
2019-04-28T19:08:50.925Z,93.94
2019-04-28T19:11:42.096Z,93.39
2019-04-28T19:14:21.305Z,93.48
2019-04-28T19:17:09.588Z,93.63
2019-04-28T19:19:39.377Z,93.40
2019-04-28T19:22:08.634Z,93.08
2019-04-28T19:24:39.050Z,93.46
2019-04-28T19:27:08.389Z,92.87
2019-04-28T19:29:37.779Z,93.37
2019-04-28T19:32:07.227Z,93.88
2019-04-28T19:34:36.546Z,94.04
2019-04-28T19:37:05.805Z,93.27
2019-04-28T19:39:35.316Z,94.19
2019-04-28T19:42:05.700Z,94.43
2019-04-28T19:44:34.976Z,94.89
2019-04-28T19:47:04.386Z,95.35
2019-04-28T19:49:33.951Z,95.54
2019-04-28T19:52:03.228Z,95.33
2019-04-28T19:54:36.261Z,95.27
2019-04-28T19:57:10.949Z,95.18
2019-04-28T19:59:57.654Z,94.71
2019-04-28T20:02:28.900Z,95.04
2019-04-28T20:04:58.238Z,95.41
2019-04-28T20:07:27.596Z,95.51
2019-04-28T20:09:56.924Z,95.84
2019-04-28T20:12:26.203Z,95.72
2019-04-28T20:14:55.825Z,95.91
2019-04-28T20:17:25.242Z,96.26
2019-04-28T20:19:54.530Z,96.22
2019-04-28T20:22:23.814Z,95.97
2019-04-28T20:24:53.470Z,95.76
2019-04-28T20:27:23.146Z,95.29
2019-04-28T20:29:52.420Z,95.57
2019-04-28T20:32:21.912Z,96.15
2019-04-28T20:34:51.356Z,96.51
2019-04-28T20:37:30.072Z,96.67
2019-04-28T20:40:03.465Z,96.77
2019-04-28T20:42:43.617Z,96.93
2019-04-28T20:45:13.609Z,96.96
2019-04-28T20:47:43.045Z,96.89
2019-04-28T20:50:12.827Z,96.96
2019-04-28T20:52:42.324Z,96.62
2019-04-28T20:55:11.960Z,96.19
2019-04-28T20:57:41.346Z,96.16
2019-04-28T21:00:10.647Z,96.24
2019-04-28T21:02:39.966Z,96.31
2019-04-28T21:05:09.451Z,96.41
2019-04-28T21:07:38.792Z,96.51
2019-04-28T21:10:08.294Z,96.45
2019-04-28T21:12:37.725Z,96.25
2019-04-28T21:15:07.589Z,95.91
2019-04-28T21:17:37.260Z,95.46
2019-04-28T21:20:07.128Z,95.00
2019-04-28T21:22:36.432Z,94.63
2019-04-28T21:25:06.299Z,92.99
2019-04-28T21:27:35.716Z,92.38
2019-04-28T21:30:05.256Z,92.32
2019-04-28T21:32:34.581Z,92.06
2019-04-28T21:35:03.879Z,91.93
2019-04-28T21:37:33.156Z,91.95
2019-04-28T21:40:02.496Z,91.00
2019-04-28T21:42:50.798Z,91.29
2019-04-28T21:45:39.019Z,91.74
2019-04-28T21:48:08.624Z,92.59
2019-04-28T21:50:37.947Z,92.97
2019-04-28T21:53:07.227Z,93.34
2019-04-28T21:55:36.594Z,93.79
2019-04-28T21:58:05.917Z,93.77
2019-04-28T22:00:47.262Z,92.93
2019-04-28T22:03:16.535Z,92.42
2019-04-28T22:05:45.938Z,90.44
2019-04-28T22:08:15.380Z,87.48
2019-04-28T22:10:44.713Z,83.91
2019-04-28T22:13:14.027Z,84.73
2019-04-28T22:15:43.349Z,85.06
2019-04-28T22:18:12.621Z,83.83
2019-04-28T22:20:41.929Z,84.79
2019-04-28T22:23:18.643Z,84.95
2019-04-28T22:25:45.221Z,85.09
2019-04-28T22:28:14.598Z,82.55
2019-04-28T22:30:43.971Z,82.07
2019-04-28T22:33:13.311Z,82.17
2019-04-28T22:35:42.619Z,83.62
2019-04-28T22:38:12.171Z,83.85
2019-04-28T22:40:41.542Z,83.90
2019-04-28T22:43:10.864Z,83.60
2019-04-28T22:45:40.343Z,84.33
2019-04-28T22:48:11.393Z,84.52
2019-04-28T22:50:43.208Z,84.12
2019-04-28T22:53:13.872Z,82.12
2019-04-28T22:55:48.473Z,83.07
2019-04-28T22:58:32.895Z,82.86
